sensor_id;sensor_type;location;lat;lon;timestamp;pressure;altitude;pressure_sealevel;temperature;humidity
13934;BME280;7039;52.168;9.866;2023-03-14T00:00:39;98115.34;;;13.01;76.26
13934;BME280;7039;52.168;9.866;2023-03-14T00:03:05;98096.59;;;13.06;76.31
13934;BME280;7039;52.168;9.866;2023-03-14T00:05:33;98092.22;;;13.14;76.16
13934;BME280;7039;52.168;9.866;2023-03-14T00:08:01;98086.13;;;13.06;76.57
13934;BME280;7039;52.168;9.866;2023-03-14T00:10:27;98067.81;;;13.06;76.60
13934;BME280;7039;52.168;9.866;2023-03-14T00:12:54;98064.59;;;12.94;77.13
13934;BME280;7039;52.168;9.866;2023-03-14T00:15:20;98062.41;;;13.07;76.95
13934;BME280;7039;52.168;9.866;2023-03-14T00:17:47;98069.97;;;13.10;76.98
13934;BME280;7039;52.168;9.866;2023-03-14T00:20:13;98075.50;;;13.07;77.32
13934;BME280;7039;52.168;9.866;2023-03-14T00:22:40;98058.31;;;13.05;77.40
13934;BME280;7039;52.168;9.866;2023-03-14T00:25:10;98050.81;;;13.10;77.61
13934;BME280;7039;52.168;9.866;2023-03-14T00:27:37;98061.38;;;13.00;77.47
13934;BME280;7039;52.168;9.866;2023-03-14T00:30:05;98065.34;;;12.86;77.94
13934;BME280;7039;52.168;9.866;2023-03-14T00:32:33;98078.78;;;12.91;77.57
13934;BME280;7039;52.168;9.866;2023-03-14T00:34:59;98076.63;;;12.87;77.01
13934;BME280;7039;52.168;9.866;2023-03-14T00:37:26;98074.53;;;12.90;76.55
13934;BME280;7039;52.168;9.866;2023-03-14T00:39:53;98092.78;;;13.00;76.30
13934;BME280;7039;52.168;9.866;2023-03-14T00:42:21;98108.69;;;13.07;75.98
13934;BME280;7039;52.168;9.866;2023-03-14T00:44:47;98102.78;;;13.05;75.57
13934;BME280;7039;52.168;9.866;2023-03-14T00:47:14;98108.91;;;13.13;74.98
13934;BME280;7039;52.168;9.866;2023-03-14T00:49:40;98123.34;;;13.18;74.85
13934;BME280;7039;52.168;9.866;2023-03-14T00:52:08;98118.78;;;13.02;74.80
13934;BME280;7039;52.168;9.866;2023-03-14T00:54:35;98093.13;;;13.23;73.96
13934;BME280;7039;52.168;9.866;2023-03-14T00:57:01;98096.97;;;13.29;73.61
13934;BME280;7039;52.168;9.866;2023-03-14T00:59:29;98086.75;;;13.26;73.61
13934;BME280;7039;52.168;9.866;2023-03-14T01:01:56;98083.56;;;13.32;73.40
13934;BME280;7039;52.168;9.866;2023-03-14T01:04:22;98080.34;;;13.20;73.66
13934;BME280;7039;52.168;9.866;2023-03-14T01:06:48;98070.81;;;13.19;73.59
13934;BME280;7039;52.168;9.866;2023-03-14T01:09:15;98061.66;;;13.15;73.87
13934;BME280;7039;52.168;9.866;2023-03-14T01:11:43;98062.16;;;13.19;73.97
13934;BME280;7039;52.168;9.866;2023-03-14T01:14:12;98059.78;;;13.07;74.17
13934;BME280;7039;52.168;9.866;2023-03-14T01:16:40;98053.16;;;12.95;74.78
13934;BME280;7039;52.168;9.866;2023-03-14T01:19:06;98043.44;;;12.87;74.46
13934;BME280;7039;52.168;9.866;2023-03-14T01:21:34;98061.81;;;12.95;74.69
13934;BME280;7039;52.168;9.866;2023-03-14T01:24:03;98069.38;;;12.99;74.47
13934;BME280;7039;52.168;9.866;2023-03-14T01:26:31;98057.59;;;12.94;74.39
13934;BME280;7039;52.168;9.866;2023-03-14T01:28:57;98042.25;;;13.00;74.34
13934;BME280;7039;52.168;9.866;2023-03-14T01:31:24;98035.13;;;12.92;74.51
13934;BME280;7039;52.168;9.866;2023-03-14T01:33:52;98038.88;;;12.89;73.89
13934;BME280;7039;52.168;9.866;2023-03-14T01:36:19;98042.72;;;12.77;74.58
13934;BME280;7039;52.168;9.866;2023-03-14T01:38:45;98035.09;;;12.84;74.04
13934;BME280;7039;52.168;9.866;2023-03-14T01:41:15;98045.09;;;12.88;73.86
13934;BME280;7039;52.168;9.866;2023-03-14T01:43:42;98052.50;;;12.93;73.56
13934;BME280;7039;52.168;9.866;2023-03-14T01:46:18;98071.13;;;12.90;73.99
13934;BME280;7039;52.168;9.866;2023-03-14T01:48:49;98066.47;;;12.84;74.01
13934;BME280;7039;52.168;9.866;2023-03-14T01:51:21;98043.44;;;12.87;74.19
13934;BME280;7039;52.168;9.866;2023-03-14T01:53:51;98027.84;;;12.78;73.73
13934;BME280;7039;52.168;9.866;2023-03-14T01:56:19;98020.66;;;12.80;73.58
13934;BME280;7039;52.168;9.866;2023-03-14T01:58:48;98006.66;;;12.89;73.19
13934;BME280;7039;52.168;9.866;2023-03-14T02:01:18;98006.22;;;12.93;72.98
13934;BME280;7039;52.168;9.866;2023-03-14T02:03:48;98011.44;;;12.93;72.75
13934;BME280;7039;52.168;9.866;2023-03-14T02:06:21;98003.53;;;12.85;73.03
13934;BME280;7039;52.168;9.866;2023-03-14T02:08:48;98004.75;;;12.73;73.02
13934;BME280;7039;52.168;9.866;2023-03-14T02:11:17;98001.28;;;12.90;72.51
13934;BME280;7039;52.168;9.866;2023-03-14T02:13:44;98004.28;;;12.78;72.88
13934;BME280;7039;52.168;9.866;2023-03-14T02:16:11;98008.72;;;12.77;72.72
13934;BME280;7039;52.168;9.866;2023-03-14T02:18:38;98001.91;;;12.66;72.84
13934;BME280;7039;52.168;9.866;2023-03-14T02:21:10;98009.03;;;12.56;73.43
13934;BME280;7039;52.168;9.866;2023-03-14T02:23:45;98010.75;;;12.65;73.36
13934;BME280;7039;52.168;9.866;2023-03-14T02:26:16;98008.50;;;12.52;73.06
13934;BME280;7039;52.168;9.866;2023-03-14T02:28:47;98015.66;;;12.50;73.22
13934;BME280;7039;52.168;9.866;2023-03-14T02:31:13;98021.13;;;12.57;72.90
13934;BME280;7039;52.168;9.866;2023-03-14T02:33:41;98002.00;;;12.39;73.62
13934;BME280;7039;52.168;9.866;2023-03-14T02:36:11;98009.31;;;12.35;73.77
13934;BME280;7039;52.168;9.866;2023-03-14T02:38:43;97995.34;;;12.44;73.58
13934;BME280;7039;52.168;9.866;2023-03-14T02:41:12;97999.03;;;12.33;73.41
13934;BME280;7039;52.168;9.866;2023-03-14T02:43:38;97988.03;;;12.30;73.50
13934;BME280;7039;52.168;9.866;2023-03-14T02:46:10;98001.63;;;12.51;72.69
13934;BME280;7039;52.168;9.866;2023-03-14T02:48:41;98001.56;;;12.43;72.69
13934;BME280;7039;52.168;9.866;2023-03-14T02:51:09;97988.25;;;12.37;72.75
13934;BME280;7039;52.168;9.866;2023-03-14T02:53:37;97991.09;;;12.43;72.35
13934;BME280;7039;52.168;9.866;2023-03-14T02:56:04;97980.94;;;12.40;72.23
13934;BME280;7039;52.168;9.866;2023-03-14T02:58:31;97978.38;;;12.48;71.79
13934;BME280;7039;52.168;9.866;2023-03-14T03:00:57;97973.69;;;12.52;71.68
13934;BME280;7039;52.168;9.866;2023-03-14T03:03:26;97974.72;;;12.59;71.39
13934;BME280;7039;52.168;9.866;2023-03-14T03:05:54;97980.84;;;12.68;71.18
13934;BME280;7039;52.168;9.866;2023-03-14T03:08:22;97973.75;;;12.60;71.23
13934;BME280;7039;52.168;9.866;2023-03-14T03:10:49;97964.19;;;12.51;71.28
13934;BME280;7039;52.168;9.866;2023-03-14T03:13:16;97974.88;;;12.58;71.38
13934;BME280;7039;52.168;9.866;2023-03-14T03:15:44;97963.00;;;12.63;71.20
13934;BME280;7039;52.168;9.866;2023-03-14T03:18:10;97958.69;;;12.54;71.29
13934;BME280;7039;52.168;9.866;2023-03-14T03:20:38;97952.03;;;12.42;71.89
13934;BME280;7039;52.168;9.866;2023-03-14T03:23:05;97961.81;;;12.40;71.73
13934;BME280;7039;52.168;9.866;2023-03-14T03:25:31;97942.09;;;12.45;73.00
13934;BME280;7039;52.168;9.866;2023-03-14T03:27:59;97944.41;;;12.48;72.91
13934;BME280;7039;52.168;9.866;2023-03-14T03:30:25;97948.91;;;12.56;72.87
13934;BME280;7039;52.168;9.866;2023-03-14T03:32:51;97934.56;;;12.24;72.95
13934;BME280;7039;52.168;9.866;2023-03-14T03:35:18;97941.66;;;12.32;73.11
13934;BME280;7039;52.168;9.866;2023-03-14T03:37:46;97943.75;;;12.28;73.21
13934;BME280;7039;52.168;9.866;2023-03-14T03:40:12;97908.69;;;12.13;73.61
13934;BME280;7039;52.168;9.866;2023-03-14T03:42:39;97930.66;;;12.28;73.29
13934;BME280;7039;52.168;9.866;2023-03-14T03:45:06;97937.09;;;12.16;73.69
13934;BME280;7039;52.168;9.866;2023-03-14T03:47:33;97939.03;;;12.14;73.21
13934;BME280;7039;52.168;9.866;2023-03-14T03:49:59;97957.88;;;12.36;72.81
13934;BME280;7039;52.168;9.866;2023-03-14T03:52:26;97946.88;;;12.14;73.53
13934;BME280;7039;52.168;9.866;2023-03-14T03:54:53;97954.94;;;12.39;74.55
13934;BME280;7039;52.168;9.866;2023-03-14T03:57:20;97969.06;;;12.28;76.41
13934;BME280;7039;52.168;9.866;2023-03-14T03:59:46;97970.81;;;11.91;78.09
13934;BME280;7039;52.168;9.866;2023-03-14T04:02:13;97988.38;;;11.99;78.43
13934;BME280;7039;52.168;9.866;2023-03-14T04:04:39;98002.19;;;11.54;80.99
13934;BME280;7039;52.168;9.866;2023-03-14T04:07:06;98062.63;;;10.93;79.21
13934;BME280;7039;52.168;9.866;2023-03-14T04:09:32;98005.41;;;10.52;82.20
13934;BME280;7039;52.168;9.866;2023-03-14T04:12:00;98007.06;;;10.53;83.68
13934;BME280;7039;52.168;9.866;2023-03-14T04:14:26;98001.16;;;10.51;84.10
13934;BME280;7039;52.168;9.866;2023-03-14T04:16:53;97999.19;;;10.24;83.59
13934;BME280;7039;52.168;9.866;2023-03-14T04:19:20;97978.41;;;10.34;83.11
13934;BME280;7039;52.168;9.866;2023-03-14T04:21:47;97974.56;;;10.38;83.52
13934;BME280;7039;52.168;9.866;2023-03-14T04:24:13;97975.22;;;10.40;83.62
13934;BME280;7039;52.168;9.866;2023-03-14T04:26:40;97972.91;;;10.37;82.58
13934;BME280;7039;52.168;9.866;2023-03-14T04:29:08;97969.72;;;10.23;82.93
13934;BME280;7039;52.168;9.866;2023-03-14T04:31:34;97979.63;;;10.39;82.10
13934;BME280;7039;52.168;9.866;2023-03-14T04:34:01;97981.94;;;10.33;82.38
13934;BME280;7039;52.168;9.866;2023-03-14T04:36:27;97976.19;;;10.39;82.27
13934;BME280;7039;52.168;9.866;2023-03-14T04:38:53;97973.19;;;10.43;82.44
13934;BME280;7039;52.168;9.866;2023-03-14T04:41:20;97972.75;;;10.48;81.77
13934;BME280;7039;52.168;9.866;2023-03-14T04:43:46;97965.91;;;10.37;81.85
13934;BME280;7039;52.168;9.866;2023-03-14T04:46:14;97965.06;;;10.76;81.47
13934;BME280;7039;52.168;9.866;2023-03-14T04:48:41;97965.34;;;10.53;81.24
13934;BME280;7039;52.168;9.866;2023-03-14T04:51:07;97958.50;;;10.62;81.24
13934;BME280;7039;52.168;9.866;2023-03-14T04:53:34;97955.78;;;10.54;81.22
13934;BME280;7039;52.168;9.866;2023-03-14T04:56:02;97964.41;;;10.54;81.11
13934;BME280;7039;52.168;9.866;2023-03-14T04:58:29;97966.06;;;10.36;81.34
13934;BME280;7039;52.168;9.866;2023-03-14T05:00:55;97965.78;;;10.58;80.84
13934;BME280;7039;52.168;9.866;2023-03-14T05:03:23;97965.50;;;10.52;81.22
13934;BME280;7039;52.168;9.866;2023-03-14T05:05:50;97970.00;;;10.69;80.99
13934;BME280;7039;52.168;9.866;2023-03-14T05:08:16;97965.38;;;10.63;81.05
13934;BME280;7039;52.168;9.866;2023-03-14T05:10:42;97973.69;;;10.76;80.53
13934;BME280;7039;52.168;9.866;2023-03-14T05:13:09;97977.53;;;10.82;80.50
13934;BME280;7039;52.168;9.866;2023-03-14T05:15:35;97963.84;;;10.70;80.49
13934;BME280;7039;52.168;9.866;2023-03-14T05:18:02;97944.31;;;10.84;79.86
13934;BME280;7039;52.168;9.866;2023-03-14T05:20:30;97945.69;;;10.88;80.08
13934;BME280;7039;52.168;9.866;2023-03-14T05:22:56;97950.66;;;10.62;79.92
13934;BME280;7039;52.168;9.866;2023-03-14T05:25:23;97947.75;;;10.84;79.75
13934;BME280;7039;52.168;9.866;2023-03-14T05:27:49;97945.00;;;10.86;79.22
13934;BME280;7039;52.168;9.866;2023-03-14T05:30:16;97944.31;;;10.84;79.38
13934;BME280;7039;52.168;9.866;2023-03-14T05:32:42;97940.53;;;10.59;80.10
13934;BME280;7039;52.168;9.866;2023-03-14T05:35:09;97942.44;;;10.57;80.14
13934;BME280;7039;52.168;9.866;2023-03-14T05:37:37;97945.19;;;10.55;80.21
13934;BME280;7039;52.168;9.866;2023-03-14T05:40:05;97942.88;;;10.52;80.41
13934;BME280;7039;52.168;9.866;2023-03-14T05:42:32;97935.06;;;10.33;80.86
13934;BME280;7039;52.168;9.866;2023-03-14T05:44:58;97945.47;;;10.52;80.55
13934;BME280;7039;52.168;9.866;2023-03-14T05:47:25;97932.03;;;10.37;80.93
13934;BME280;7039;52.168;9.866;2023-03-14T05:49:51;97936.03;;;10.32;80.95
13934;BME280;7039;52.168;9.866;2023-03-14T05:52:18;97945.75;;;10.49;80.65
13934;BME280;7039;52.168;9.866;2023-03-14T05:54:45;97945.31;;;10.63;80.21
13934;BME280;7039;52.168;9.866;2023-03-14T05:57:12;97950.13;;;10.68;79.73
13934;BME280;7039;52.168;9.866;2023-03-14T05:59:38;97942.16;;;10.70;79.62
13934;BME280;7039;52.168;9.866;2023-03-14T06:02:05;97936.75;;;10.81;79.26
13934;BME280;7039;52.168;9.866;2023-03-14T06:04:31;97930.75;;;10.71;79.42
13934;BME280;7039;52.168;9.866;2023-03-14T06:06:58;97932.28;;;10.63;79.53
13934;BME280;7039;52.168;9.866;2023-03-14T06:09:24;97923.22;;;10.58;79.29
13934;BME280;7039;52.168;9.866;2023-03-14T06:11:52;97941.75;;;10.74;78.88
13934;BME280;7039;52.168;9.866;2023-03-14T06:14:18;97943.13;;;10.59;78.85
13934;BME280;7039;52.168;9.866;2023-03-14T06:16:45;97941.47;;;10.77;78.92
13934;BME280;7039;52.168;9.866;2023-03-14T06:19:13;97955.03;;;10.71;78.62
13934;BME280;7039;52.168;9.866;2023-03-14T06:21:39;97935.16;;;10.70;78.27
13934;BME280;7039;52.168;9.866;2023-03-14T06:24:06;97941.06;;;10.72;77.93
13934;BME280;7039;52.168;9.866;2023-03-14T06:26:32;97934.59;;;10.76;77.93
13934;BME280;7039;52.168;9.866;2023-03-14T06:29:00;97944.28;;;10.94;77.91
13934;BME280;7039;52.168;9.866;2023-03-14T06:31:29;97941.56;;;10.95;78.33
13934;BME280;7039;52.168;9.866;2023-03-14T06:33:55;97947.63;;;10.76;78.51
13934;BME280;7039;52.168;9.866;2023-03-14T06:36:22;97947.19;;;10.91;78.35
13934;BME280;7039;52.168;9.866;2023-03-14T06:38:48;97967.34;;;10.98;77.27
13934;BME280;7039;52.168;9.866;2023-03-14T06:41:15;97947.97;;;11.11;77.27
13934;BME280;7039;52.168;9.866;2023-03-14T06:43:41;97945.81;;;10.86;79.17
13934;BME280;7039;52.168;9.866;2023-03-14T06:46:09;97959.41;;;10.80;78.85
13934;BME280;7039;52.168;9.866;2023-03-14T06:48:36;97960.66;;;10.86;79.08
13934;BME280;7039;52.168;9.866;2023-03-14T06:51:03;97953.09;;;10.83;80.99
13934;BME280;7039;52.168;9.866;2023-03-14T06:53:29;97946.00;;;10.75;81.91
13934;BME280;7039;52.168;9.866;2023-03-14T06:55:56;97954.88;;;10.82;81.66
13934;BME280;7039;52.168;9.866;2023-03-14T06:58:22;97956.81;;;10.80;82.17
13934;BME280;7039;52.168;9.866;2023-03-14T07:00:49;97977.56;;;10.62;82.41
13934;BME280;7039;52.168;9.866;2023-03-14T07:03:16;97969.84;;;10.80;82.42
13934;BME280;7039;52.168;9.866;2023-03-14T07:05:43;97975.78;;;10.73;82.66
13934;BME280;7039;52.168;9.866;2023-03-14T07:08:09;97976.00;;;10.89;82.71
13934;BME280;7039;52.168;9.866;2023-03-14T07:10:36;97972.47;;;11.27;82.04
13934;BME280;7039;52.168;9.866;2023-03-14T07:13:03;97975.97;;;11.08;82.81
13934;BME280;7039;52.168;9.866;2023-03-14T07:15:29;97974.56;;;11.14;82.75
13934;BME280;7039;52.168;9.866;2023-03-14T07:17:56;97964.22;;;10.85;83.41
13934;BME280;7039;52.168;9.866;2023-03-14T07:20:23;97967.72;;;11.03;83.32
13934;BME280;7039;52.168;9.866;2023-03-14T07:22:50;97962.44;;;10.85;84.48
13934;BME280;7039;52.168;9.866;2023-03-14T07:25:17;97974.00;;;10.63;86.25
13934;BME280;7039;52.168;9.866;2023-03-14T07:27:44;97965.38;;;10.63;86.59
13934;BME280;7039;52.168;9.866;2023-03-14T07:30:12;97960.50;;;10.87;86.61
13934;BME280;7039;52.168;9.866;2023-03-14T07:32:39;97967.66;;;10.85;86.50
13934;BME280;7039;52.168;9.866;2023-03-14T07:35:07;97970.63;;;11.00;86.64
13934;BME280;7039;52.168;9.866;2023-03-14T07:37:35;97952.63;;;11.07;86.29
13934;BME280;7039;52.168;9.866;2023-03-14T07:40:01;97954.25;;;11.08;86.04
13934;BME280;7039;52.168;9.866;2023-03-14T07:42:30;97956.13;;;11.25;84.75
13934;BME280;7039;52.168;9.866;2023-03-14T07:44:57;97953.31;;;11.09;85.07
13934;BME280;7039;52.168;9.866;2023-03-14T07:47:23;97946.56;;;11.16;84.39
13934;BME280;7039;52.168;9.866;2023-03-14T07:49:49;97945.63;;;11.45;83.77
13934;BME280;7039;52.168;9.866;2023-03-14T07:52:16;97949.16;;;11.54;82.71
13934;BME280;7039;52.168;9.866;2023-03-14T07:54:44;97945.94;;;11.60;83.59
13934;BME280;7039;52.168;9.866;2023-03-14T07:57:10;97935.72;;;11.48;83.02
13934;BME280;7039;52.168;9.866;2023-03-14T07:59:37;97930.34;;;11.50;82.53
13934;BME280;7039;52.168;9.866;2023-03-14T08:02:03;97926.50;;;11.54;82.41
13934;BME280;7039;52.168;9.866;2023-03-14T08:04:30;97921.94;;;11.56;81.73
13934;BME280;7039;52.168;9.866;2023-03-14T08:06:57;97926.75;;;11.79;81.10
13934;BME280;7039;52.168;9.866;2023-03-14T08:09:23;97923.22;;;11.98;80.02
13934;BME280;7039;52.168;9.866;2023-03-14T08:11:51;97937.47;;;12.03;80.68
13934;BME280;7039;52.168;9.866;2023-03-14T08:14:18;97931.78;;;12.26;78.95
13934;BME280;7039;52.168;9.866;2023-03-14T08:16:44;97932.88;;;12.15;79.29
13934;BME280;7039;52.168;9.866;2023-03-14T08:19:10;97923.91;;;11.72;80.55
13934;BME280;7039;52.168;9.866;2023-03-14T08:21:37;97929.28;;;12.16;79.52
13934;BME280;7039;52.168;9.866;2023-03-14T08:24:03;97927.69;;;12.05;78.16
13934;BME280;7039;52.168;9.866;2023-03-14T08:26:30;97938.84;;;11.80;79.70
13934;BME280;7039;52.168;9.866;2023-03-14T08:28:58;97950.53;;;12.03;79.81
13934;BME280;7039;52.168;9.866;2023-03-14T08:31:24;97948.84;;;11.84;79.52
13934;BME280;7039;52.168;9.866;2023-03-14T08:33:51;97950.91;;;11.81;80.20
13934;BME280;7039;52.168;9.866;2023-03-14T08:36:18;97977.09;;;11.43;81.64
13934;BME280;7039;52.168;9.866;2023-03-14T08:38:45;97952.84;;;11.51;83.66
13934;BME280;7039;52.168;9.866;2023-03-14T08:41:12;97954.41;;;11.44;85.20
13934;BME280;7039;52.168;9.866;2023-03-14T08:43:38;97952.31;;;11.20;86.48
13934;BME280;7039;52.168;9.866;2023-03-14T08:46:06;97954.63;;;11.23;87.19
13934;BME280;7039;52.168;9.866;2023-03-14T08:48:33;97951.59;;;11.27;87.08
13934;BME280;7039;52.168;9.866;2023-03-14T08:51:04;97943.59;;;11.66;85.36
13934;BME280;7039;52.168;9.866;2023-03-14T08:53:31;97952.78;;;11.98;85.02
13934;BME280;7039;52.168;9.866;2023-03-14T08:55:57;97948.91;;;12.20;83.51
13934;BME280;7039;52.168;9.866;2023-03-14T08:58:24;97951.97;;;12.33;82.82
13934;BME280;7039;52.168;9.866;2023-03-14T09:00:50;97960.94;;;12.13;82.72
13934;BME280;7039;52.168;9.866;2023-03-14T09:03:18;97957.09;;;12.07;82.56
13934;BME280;7039;52.168;9.866;2023-03-14T09:05:45;97956.69;;;11.84;82.51
13934;BME280;7039;52.168;9.866;2023-03-14T09:08:11;97959.44;;;11.83;82.64
13934;BME280;7039;52.168;9.866;2023-03-14T09:10:37;97965.94;;;12.06;82.07
13934;BME280;7039;52.168;9.866;2023-03-14T09:13:04;97969.72;;;12.12;81.53
13934;BME280;7039;52.168;9.866;2023-03-14T09:15:31;97965.84;;;11.98;81.83
13934;BME280;7039;52.168;9.866;2023-03-14T09:17:57;97964.34;;;11.96;80.77
13934;BME280;7039;52.168;9.866;2023-03-14T09:20:26;97951.81;;;11.99;81.36
13934;BME280;7039;52.168;9.866;2023-03-14T09:22:53;97970.53;;;12.48;80.46
13934;BME280;7039;52.168;9.866;2023-03-14T09:25:20;97953.81;;;12.41;80.07
13934;BME280;7039;52.168;9.866;2023-03-14T09:27:46;97953.53;;;12.08;79.56
13934;BME280;7039;52.168;9.866;2023-03-14T09:30:13;97967.03;;;12.58;80.28
13934;BME280;7039;52.168;9.866;2023-03-14T09:32:39;97959.84;;;12.60;80.00
13934;BME280;7039;52.168;9.866;2023-03-14T09:35:06;97954.34;;;12.45;80.10
13934;BME280;7039;52.168;9.866;2023-03-14T09:37:34;97937.00;;;12.44;80.36
13934;BME280;7039;52.168;9.866;2023-03-14T09:40:00;97944.34;;;12.58;80.76
13934;BME280;7039;52.168;9.866;2023-03-14T09:42:35;97952.53;;;12.89;77.05
13934;BME280;7039;52.168;9.866;2023-03-14T09:45:05;97962.00;;;13.08;76.84
13934;BME280;7039;52.168;9.866;2023-03-14T09:47:33;97961.28;;;12.98;77.14
13934;BME280;7039;52.168;9.866;2023-03-14T09:50:00;97954.78;;;12.58;77.77
13934;BME280;7039;52.168;9.866;2023-03-14T09:52:30;97956.28;;;12.61;78.84
13934;BME280;7039;52.168;9.866;2023-03-14T09:55:02;97966.06;;;12.59;78.79
13934;BME280;7039;52.168;9.866;2023-03-14T09:57:32;97965.28;;;12.66;79.15
13934;BME280;7039;52.168;9.866;2023-03-14T10:00:02;97965.53;;;12.99;78.93
13934;BME280;7039;52.168;9.866;2023-03-14T10:02:38;97956.84;;;13.25;76.80
13934;BME280;7039;52.168;9.866;2023-03-14T10:05:07;97955.69;;;12.93;76.10
13934;BME280;7039;52.168;9.866;2023-03-14T10:07:34;97971.94;;;12.79;76.60
13934;BME280;7039;52.168;9.866;2023-03-14T10:10:10;97963.47;;;12.85;77.94
13934;BME280;7039;52.168;9.866;2023-03-14T10:12:37;97959.94;;;12.94;77.98
13934;BME280;7039;52.168;9.866;2023-03-14T10:15:06;97965.53;;;13.60;75.58
13934;BME280;7039;52.168;9.866;2023-03-14T10:17:39;97968.28;;;13.24;76.98
13934;BME280;7039;52.168;9.866;2023-03-14T10:20:06;97962.50;;;13.38;77.84
13934;BME280;7039;52.168;9.866;2023-03-14T10:22:35;97972.78;;;13.31;77.75
13934;BME280;7039;52.168;9.866;2023-03-14T10:25:06;97970.41;;;13.20;76.33
13934;BME280;7039;52.168;9.866;2023-03-14T10:27:46;97974.16;;;13.44;75.83
13934;BME280;7039;52.168;9.866;2023-03-14T10:30:28;97975.09;;;13.34;75.60
13934;BME280;7039;52.168;9.866;2023-03-14T10:32:55;97972.78;;;13.31;77.11
13934;BME280;7039;52.168;9.866;2023-03-14T10:35:23;97974.69;;;13.03;75.55
13934;BME280;7039;52.168;9.866;2023-03-14T10:37:55;97963.78;;;13.08;76.08
13934;BME280;7039;52.168;9.866;2023-03-14T10:40:28;97957.53;;;12.74;78.83
13934;BME280;7039;52.168;9.866;2023-03-14T10:42:57;97961.94;;;12.74;78.21
13934;BME280;7039;52.168;9.866;2023-03-14T10:45:32;97965.69;;;12.98;78.00
13934;BME280;7039;52.168;9.866;2023-03-14T10:48:06;97964.75;;;13.07;76.50
13934;BME280;7039;52.168;9.866;2023-03-14T10:50:33;97963.94;;;13.32;75.93
13934;BME280;7039;52.168;9.866;2023-03-14T10:53:02;97953.31;;;13.68;74.69
13934;BME280;7039;52.168;9.866;2023-03-14T10:55:40;97961.28;;;13.58;74.28
13934;BME280;7039;52.168;9.866;2023-03-14T10:58:18;97961.63;;;13.64;74.53
13934;BME280;7039;52.168;9.866;2023-03-14T11:00:47;97957.47;;;13.45;73.88
13934;BME280;7039;52.168;9.866;2023-03-14T11:03:16;97968.03;;;13.35;75.22
13934;BME280;7039;52.168;9.866;2023-03-14T11:05:49;97970.13;;;13.05;75.64
13934;BME280;7039;52.168;9.866;2023-03-14T11:08:22;97948.75;;;12.84;77.30
13934;BME280;7039;52.168;9.866;2023-03-14T11:10:54;97964.47;;;12.84;79.30
13934;BME280;7039;52.168;9.866;2023-03-14T11:13:23;97963.78;;;12.82;78.83
13934;BME280;7039;52.168;9.866;2023-03-14T11:16:01;97958.25;;;12.67;78.07
13934;BME280;7039;52.168;9.866;2023-03-14T11:18:51;97960.97;;;12.75;79.03
13934;BME280;7039;52.168;9.866;2023-03-14T11:21:24;97966.50;;;12.98;79.13
13934;BME280;7039;52.168;9.866;2023-03-14T11:24:05;97971.03;;;13.14;79.00
13934;BME280;7039;52.168;9.866;2023-03-14T11:26:42;97967.47;;;13.23;79.00
13934;BME280;7039;52.168;9.866;2023-03-14T11:29:20;97958.03;;;13.30;78.46
13934;BME280;7039;52.168;9.866;2023-03-14T11:31:47;97963.00;;;13.42;79.20
13934;BME280;7039;52.168;9.866;2023-03-14T11:34:16;97967.22;;;13.34;78.96
13934;BME280;7039;52.168;9.866;2023-03-14T11:36:46;97968.38;;;13.32;78.64
13934;BME280;7039;52.168;9.866;2023-03-14T11:39:17;97978.91;;;13.40;79.67
13934;BME280;7039;52.168;9.866;2023-03-14T11:41:46;97974.47;;;13.41;80.26
13934;BME280;7039;52.168;9.866;2023-03-14T11:44:17;98012.28;;;13.46;80.07
13934;BME280;7039;52.168;9.866;2023-03-14T11:46:49;98072.78;;;13.17;82.80
13934;BME280;7039;52.168;9.866;2023-03-14T11:49:26;98100.34;;;9.78;86.16
13934;BME280;7039;52.168;9.866;2023-03-14T11:51:57;98142.34;;;8.12;91.81
13934;BME280;7039;52.168;9.866;2023-03-14T11:54:33;98141.53;;;7.78;91.54
13934;BME280;7039;52.168;9.866;2023-03-14T11:57:03;98174.75;;;7.62;94.29
13934;BME280;7039;52.168;9.866;2023-03-14T11:59:33;98163.72;;;7.36;94.79
13934;BME280;7039;52.168;9.866;2023-03-14T12:02:09;98198.00;;;7.04;94.53
13934;BME280;7039;52.168;9.866;2023-03-14T12:04:49;98200.78;;;6.89;95.57
13934;BME280;7039;52.168;9.866;2023-03-14T12:07:21;98209.50;;;6.88;95.14
13934;BME280;7039;52.168;9.866;2023-03-14T12:09:51;98216.88;;;6.45;95.56
13934;BME280;7039;52.168;9.866;2023-03-14T12:12:23;98238.84;;;6.76;96.98
13934;BME280;7039;52.168;9.866;2023-03-14T12:14:55;98255.03;;;6.67;96.41
13934;BME280;7039;52.168;9.866;2023-03-14T12:17:25;98255.97;;;6.66;95.78
13934;BME280;7039;52.168;9.866;2023-03-14T12:20:04;98269.16;;;6.37;95.07
13934;BME280;7039;52.168;9.866;2023-03-14T12:22:34;98279.22;;;6.16;95.57
13934;BME280;7039;52.168;9.866;2023-03-14T12:25:05;98281.78;;;6.03;95.84
13934;BME280;7039;52.168;9.866;2023-03-14T12:27:46;98281.47;;;6.08;95.56
13934;BME280;7039;52.168;9.866;2023-03-14T12:30:32;98337.75;;;5.64;92.75
13934;BME280;7039;52.168;9.866;2023-03-14T12:33:25;98355.66;;;5.13;93.03
13934;BME280;7039;52.168;9.866;2023-03-14T12:35:58;98391.22;;;5.37;93.43
13934;BME280;7039;52.168;9.866;2023-03-14T12:38:31;98402.34;;;5.52;92.80
13934;BME280;7039;52.168;9.866;2023-03-14T12:41:04;98405.72;;;5.39;93.64
13934;BME280;7039;52.168;9.866;2023-03-14T12:43:34;98431.31;;;5.30;93.88
13934;BME280;7039;52.168;9.866;2023-03-14T12:46:15;98439.13;;;4.99;92.29
13934;BME280;7039;52.168;9.866;2023-03-14T12:48:46;98412.31;;;5.02;93.52
13934;BME280;7039;52.168;9.866;2023-03-14T12:51:15;98447.28;;;5.08;92.23
13934;BME280;7039;52.168;9.866;2023-03-14T12:54:02;98475.59;;;5.38;94.82
13934;BME280;7039;52.168;9.866;2023-03-14T12:56:44;98486.03;;;5.08;93.25
13934;BME280;7039;52.168;9.866;2023-03-14T12:59:30;98478.06;;;4.82;93.07
13934;BME280;7039;52.168;9.866;2023-03-14T13:02:01;98482.97;;;5.01;93.94
13934;BME280;7039;52.168;9.866;2023-03-14T13:04:32;98477.25;;;4.96;93.88
13934;BME280;7039;52.168;9.866;2023-03-14T13:07:00;98488.25;;;5.14;93.03
13934;BME280;7039;52.168;9.866;2023-03-14T13:09:52;98526.81;;;5.02;92.54
13934;BME280;7039;52.168;9.866;2023-03-14T13:12:23;98545.25;;;4.96;94.21
13934;BME280;7039;52.168;9.866;2023-03-14T13:15:01;98549.41;;;4.99;93.14
13934;BME280;7039;52.168;9.866;2023-03-14T13:17:32;98578.31;;;5.20;92.42
13934;BME280;7039;52.168;9.866;2023-03-14T13:20:05;98570.41;;;5.23;91.81